sensor_id;sensor_type;location;lat;lon;timestamp;temperature;humidity
68867;SHT30;56451;44.804;20.476;2023-02-05T00:01:26;0.57;51.57
68867;SHT30;56451;44.804;20.476;2023-02-05T00:03:52;0.52;51.86
68867;SHT30;56451;44.804;20.476;2023-02-05T00:06:19;0.50;52.66
68867;SHT30;56451;44.804;20.476;2023-02-05T00:08:45;0.52;52.65
68867;SHT30;56451;44.804;20.476;2023-02-05T00:11:12;0.52;53.27
68867;SHT30;56451;44.804;20.476;2023-02-05T00:13:40;0.52;53.44
68867;SHT30;56451;44.804;20.476;2023-02-05T00:16:12;0.54;53.54
68867;SHT30;56451;44.804;20.476;2023-02-05T00:18:39;0.57;52.70
68867;SHT30;56451;44.804;20.476;2023-02-05T00:21:06;0.56;52.70
68867;SHT30;56451;44.804;20.476;2023-02-05T00:23:33;0.52;52.83
68867;SHT30;56451;44.804;20.476;2023-02-05T00:26:00;0.50;52.27
68867;SHT30;56451;44.804;20.476;2023-02-05T00:28:27;0.52;51.98
68867;SHT30;56451;44.804;20.476;2023-02-05T00:30:53;0.52;52.17
68867;SHT30;56451;44.804;20.476;2023-02-05T00:33:21;0.50;52.11
68867;SHT30;56451;44.804;20.476;2023-02-05T00:35:48;0.52;52.09
68867;SHT30;56451;44.804;20.476;2023-02-05T00:38:15;0.52;51.83
68867;SHT30;56451;44.804;20.476;2023-02-05T00:40:44;0.49;52.44
68867;SHT30;56451;44.804;20.476;2023-02-05T00:43:11;0.49;52.41
68867;SHT30;56451;44.804;20.476;2023-02-05T00:45:37;0.50;53.01
68867;SHT30;56451;44.804;20.476;2023-02-05T00:48:04;0.59;52.89
68867;SHT30;56451;44.804;20.476;2023-02-05T00:50:32;0.63;53.46
68867;SHT30;56451;44.804;20.476;2023-02-05T00:52:59;0.63;53.82
68867;SHT30;56451;44.804;20.476;2023-02-05T00:55:25;0.71;53.89
68867;SHT30;56451;44.804;20.476;2023-02-05T00:57:52;0.71;54.11
68867;SHT30;56451;44.804;20.476;2023-02-05T01:00:18;0.66;54.61
68867;SHT30;56451;44.804;20.476;2023-02-05T01:02:44;0.64;54.89
68867;SHT30;56451;44.804;20.476;2023-02-05T01:05:11;0.69;55.13
68867;SHT30;56451;44.804;20.476;2023-02-05T01:07:38;0.64;55.24
68867;SHT30;56451;44.804;20.476;2023-02-05T01:10:05;0.69;55.00
68867;SHT30;56451;44.804;20.476;2023-02-05T01:12:31;0.70;54.75
68867;SHT30;56451;44.804;20.476;2023-02-05T01:15:03;0.67;54.81
68867;SHT30;56451;44.804;20.476;2023-02-05T01:17:30;0.66;55.09
68867;SHT30;56451;44.804;20.476;2023-02-05T01:19:56;0.63;55.20
68867;SHT30;56451;44.804;20.476;2023-02-05T01:22:22;0.63;55.91
68867;SHT30;56451;44.804;20.476;2023-02-05T01:24:52;0.63;56.59
68867;SHT30;56451;44.804;20.476;2023-02-05T01:27:18;0.52;57.76
68867;SHT30;56451;44.804;20.476;2023-02-05T01:29:45;0.53;58.26
68867;SHT30;56451;44.804;20.476;2023-02-05T01:32:11;0.54;58.76
68867;SHT30;56451;44.804;20.476;2023-02-05T01:34:38;0.57;59.01
68867;SHT30;56451;44.804;20.476;2023-02-05T01:37:04;0.52;59.46
68867;SHT30;56451;44.804;20.476;2023-02-05T01:39:30;0.45;59.94
68867;SHT30;56451;44.804;20.476;2023-02-05T01:41:56;0.40;60.22
68867;SHT30;56451;44.804;20.476;2023-02-05T01:44:23;0.38;60.73
68867;SHT30;56451;44.804;20.476;2023-02-05T01:46:54;0.33;61.11
68867;SHT30;56451;44.804;20.476;2023-02-05T01:49:27;0.29;61.34
68867;SHT30;56451;44.804;20.476;2023-02-05T01:51:58;0.25;61.67
68867;SHT30;56451;44.804;20.476;2023-02-05T01:54:27;0.23;61.73
68867;SHT30;56451;44.804;20.476;2023-02-05T01:57:02;0.21;61.83
68867;SHT30;56451;44.804;20.476;2023-02-05T01:59:32;0.22;61.71
68867;SHT30;56451;44.804;20.476;2023-02-05T02:01:59;0.26;61.55
68867;SHT30;56451;44.804;20.476;2023-02-05T02:04:42;0.30;61.36
68867;SHT30;56451;44.804;20.476;2023-02-05T02:07:14;0.25;61.08
68867;SHT30;56451;44.804;20.476;2023-02-05T02:09:42;0.19;61.24
68867;SHT30;56451;44.804;20.476;2023-02-05T02:12:16;0.12;61.48
68867;SHT30;56451;44.804;20.476;2023-02-05T02:14:47;-0.01;60.92
68867;SHT30;56451;44.804;20.476;2023-02-05T02:17:17;-0.09;61.46
68867;SHT30;56451;44.804;20.476;2023-02-05T02:20:01;-0.09;61.54
68867;SHT30;56451;44.804;20.476;2023-02-05T02:30:25;-0.18;60.63
68867;SHT30;56451;44.804;20.476;2023-02-05T02:33:28;-0.16;60.16
68867;SHT30;56451;44.804;20.476;2023-02-05T02:36:09;-0.15;60.70
68867;SHT30;56451;44.804;20.476;2023-02-05T02:38:56;-0.09;60.16
68867;SHT30;56451;44.804;20.476;2023-02-05T02:41:43;-0.06;59.84
68867;SHT30;56451;44.804;20.476;2023-02-05T02:44:28;-0.13;59.80
68867;SHT30;56451;44.804;20.476;2023-02-05T02:47:02;-0.08;58.98
68867;SHT30;56451;44.804;20.476;2023-02-05T02:49:35;-0.15;59.21
68867;SHT30;56451;44.804;20.476;2023-02-05T02:52:10;-0.16;59.01
68867;SHT30;56451;44.804;20.476;2023-02-05T02:54:40;-0.19;58.97
68867;SHT30;56451;44.804;20.476;2023-02-05T02:57:08;-0.19;58.76
68867;SHT30;56451;44.804;20.476;2023-02-05T02:59:37;-0.20;58.75
68867;SHT30;56451;44.804;20.476;2023-02-05T03:02:09;-0.19;58.43
68867;SHT30;56451;44.804;20.476;2023-02-05T03:04:38;-0.18;58.39
68867;SHT30;56451;44.804;20.476;2023-02-05T03:12:43;-0.39;60.06
68867;SHT30;56451;44.804;20.476;2023-02-05T03:15:10;-0.41;60.29
68867;SHT30;56451;44.804;20.476;2023-02-05T03:17:37;-0.46;60.71
68867;SHT30;56451;44.804;20.476;2023-02-05T03:20:12;-0.43;61.00
68867;SHT30;56451;44.804;20.476;2023-02-05T03:22:43;-0.43;61.25
68867;SHT30;56451;44.804;20.476;2023-02-05T03:25:10;-0.36;60.98
68867;SHT30;56451;44.804;20.476;2023-02-05T03:27:38;-0.36;61.19
68867;SHT30;56451;44.804;20.476;2023-02-05T03:30:05;-0.37;61.25
68867;SHT30;56451;44.804;20.476;2023-02-05T03:32:50;-0.40;61.43
68867;SHT30;56451;44.804;20.476;2023-02-05T03:36:33;-0.36;61.31
68867;SHT30;56451;44.804;20.476;2023-02-05T03:38:42;-0.30;61.41
68867;SHT30;56451;44.804;20.476;2023-02-05T03:41:44;-0.23;61.25
68867;SHT30;56451;44.804;20.476;2023-02-05T03:44:52;-0.23;61.39
68867;SHT30;56451;44.804;20.476;2023-02-05T03:47:47;-0.23;61.59
68867;SHT30;56451;44.804;20.476;2023-02-05T03:50:42;-0.26;61.71
68867;SHT30;56451;44.804;20.476;2023-02-05T03:53:22;-0.29;61.41
68867;SHT30;56451;44.804;20.476;2023-02-05T03:56:00;-0.33;61.18
68867;SHT30;56451;44.804;20.476;2023-02-05T03:58:36;-0.37;61.00
68867;SHT30;56451;44.804;20.476;2023-02-05T04:01:07;-0.40;60.09
68867;SHT30;56451;44.804;20.476;2023-02-05T04:03:33;-0.40;59.39
68867;SHT30;56451;44.804;20.476;2023-02-05T04:06:00;-0.44;58.85
68867;SHT30;56451;44.804;20.476;2023-02-05T04:08:27;-0.41;58.66
68867;SHT30;56451;44.804;20.476;2023-02-05T04:10:53;-0.46;58.97
68867;SHT30;56451;44.804;20.476;2023-02-05T04:13:21;-0.46;59.11
68867;SHT30;56451;44.804;20.476;2023-02-05T04:15:49;-0.49;58.99
68867;SHT30;56451;44.804;20.476;2023-02-05T04:18:16;-0.50;59.00
68867;SHT30;56451;44.804;20.476;2023-02-05T04:20:45;-0.46;58.29
68867;SHT30;56451;44.804;20.476;2023-02-05T04:23:14;-0.47;57.78
68867;SHT30;56451;44.804;20.476;2023-02-05T04:25:42;-0.53;57.80
68867;SHT30;56451;44.804;20.476;2023-02-05T04:28:12;-0.53;57.98
68867;SHT30;56451;44.804;20.476;2023-02-05T04:30:39;-0.58;57.82
68867;SHT30;56451;44.804;20.476;2023-02-05T04:33:07;-0.56;57.83
68867;SHT30;56451;44.804;20.476;2023-02-05T04:35:34;-0.50;57.61
68867;SHT30;56451;44.804;20.476;2023-02-05T04:38:00;-0.44;57.39
68867;SHT30;56451;44.804;20.476;2023-02-05T04:40:27;-0.43;57.31
68867;SHT30;56451;44.804;20.476;2023-02-05T04:42:53;-0.47;57.13
68867;SHT30;56451;44.804;20.476;2023-02-05T04:45:20;-0.44;56.98
68867;SHT30;56451;44.804;20.476;2023-02-05T04:47:47;-0.47;57.00
68867;SHT30;56451;44.804;20.476;2023-02-05T04:50:14;-0.52;57.08
68867;SHT30;56451;44.804;20.476;2023-02-05T04:52:41;-0.53;57.18
68867;SHT30;56451;44.804;20.476;2023-02-05T04:55:07;-0.54;57.16
68867;SHT30;56451;44.804;20.476;2023-02-05T04:57:33;-0.52;57.48
68867;SHT30;56451;44.804;20.476;2023-02-05T04:59:59;-0.47;57.24
68867;SHT30;56451;44.804;20.476;2023-02-05T05:02:25;-0.47;57.24
68867;SHT30;56451;44.804;20.476;2023-02-05T05:04:52;-0.47;57.05
68867;SHT30;56451;44.804;20.476;2023-02-05T05:07:18;-0.43;56.82
68867;SHT30;56451;44.804;20.476;2023-02-05T05:09:45;-0.43;56.83
68867;SHT30;56451;44.804;20.476;2023-02-05T05:12:11;-0.47;56.89
68867;SHT30;56451;44.804;20.476;2023-02-05T05:14:38;-0.46;56.70
68867;SHT30;56451;44.804;20.476;2023-02-05T05:17:04;-0.49;55.80
68867;SHT30;56451;44.804;20.476;2023-02-05T05:19:30;-0.58;55.84
68867;SHT30;56451;44.804;20.476;2023-02-05T05:21:57;-0.61;56.32
68867;SHT30;56451;44.804;20.476;2023-02-05T05:24:23;-0.61;55.89
68867;SHT30;56451;44.804;20.476;2023-02-05T05:26:50;-0.66;55.52
68867;SHT30;56451;44.804;20.476;2023-02-05T05:29:16;-0.74;55.89
68867;SHT30;56451;44.804;20.476;2023-02-05T05:31:43;-0.77;56.16
68867;SHT30;56451;44.804;20.476;2023-02-05T05:34:09;-0.77;56.12
68867;SHT30;56451;44.804;20.476;2023-02-05T05:36:36;-0.81;56.06
68867;SHT30;56451;44.804;20.476;2023-02-05T05:39:04;-0.84;56.08
68867;SHT30;56451;44.804;20.476;2023-02-05T05:41:49;-0.87;55.65
68867;SHT30;56451;44.804;20.476;2023-02-05T05:44:37;-0.97;55.74
68867;SHT30;56451;44.804;20.476;2023-02-05T05:47:04;-0.99;55.98
68867;SHT30;56451;44.804;20.476;2023-02-05T05:49:30;-1.04;55.88
68867;SHT30;56451;44.804;20.476;2023-02-05T05:51:57;-1.04;55.88
68867;SHT30;56451;44.804;20.476;2023-02-05T05:54:23;-1.04;56.05
68867;SHT30;56451;44.804;20.476;2023-02-05T05:56:49;-1.04;56.04
68867;SHT30;56451;44.804;20.476;2023-02-05T05:59:16;-1.05;56.15
68867;SHT30;56451;44.804;20.476;2023-02-05T06:01:43;-1.05;56.04
68867;SHT30;56451;44.804;20.476;2023-02-05T06:04:09;-1.04;56.34
68867;SHT30;56451;44.804;20.476;2023-02-05T06:06:35;-0.99;56.03
68867;SHT30;56451;44.804;20.476;2023-02-05T06:09:03;-0.95;55.99
68867;SHT30;56451;44.804;20.476;2023-02-05T06:11:29;-0.92;55.68
68867;SHT30;56451;44.804;20.476;2023-02-05T06:13:55;-0.85;55.29
68867;SHT30;56451;44.804;20.476;2023-02-05T06:16:22;-0.83;55.05
68867;SHT30;56451;44.804;20.476;2023-02-05T06:18:49;-0.87;55.31
68867;SHT30;56451;44.804;20.476;2023-02-05T06:21:15;-0.85;55.64
68867;SHT30;56451;44.804;20.476;2023-02-05T06:23:41;-0.77;55.01
68867;SHT30;56451;44.804;20.476;2023-02-05T06:26:08;-0.78;54.91
68867;SHT30;56451;44.804;20.476;2023-02-05T06:28:34;-0.80;54.71
68867;SHT30;56451;44.804;20.476;2023-02-05T06:31:01;-0.81;54.28
68867;SHT30;56451;44.804;20.476;2023-02-05T06:33:27;-0.83;54.51
68867;SHT30;56451;44.804;20.476;2023-02-05T06:35:56;-0.83;54.69
68867;SHT30;56451;44.804;20.476;2023-02-05T06:38:23;-0.83;54.69
68867;SHT30;56451;44.804;20.476;2023-02-05T06:40:49;-0.84;54.79
68867;SHT30;56451;44.804;20.476;2023-02-05T06:43:15;-0.85;54.57
68867;SHT30;56451;44.804;20.476;2023-02-05T06:45:42;-0.85;54.77
68867;SHT30;56451;44.804;20.476;2023-02-05T06:48:08;-0.85;54.61
68867;SHT30;56451;44.804;20.476;2023-02-05T06:50:34;-0.84;54.62
68867;SHT30;56451;44.804;20.476;2023-02-05T06:53:01;-0.88;54.56
68867;SHT30;56451;44.804;20.476;2023-02-05T06:55:27;-0.89;54.87
68867;SHT30;56451;44.804;20.476;2023-02-05T06:57:55;-0.91;54.59
68867;SHT30;56451;44.804;20.476;2023-02-05T07:00:21;-0.88;54.74
68867;SHT30;56451;44.804;20.476;2023-02-05T07:02:47;-0.94;54.29
68867;SHT30;56451;44.804;20.476;2023-02-05T07:05:13;-0.97;54.56
68867;SHT30;56451;44.804;20.476;2023-02-05T07:07:40;-1.04;54.89
68867;SHT30;56451;44.804;20.476;2023-02-05T07:10:06;-1.01;54.71
68867;SHT30;56451;44.804;20.476;2023-02-05T07:12:32;-1.02;54.88
68867;SHT30;56451;44.804;20.476;2023-02-05T07:14:59;-1.01;54.86
68867;SHT30;56451;44.804;20.476;2023-02-05T07:17:25;-1.05;55.18
68867;SHT30;56451;44.804;20.476;2023-02-05T07:19:52;-0.99;55.17
68867;SHT30;56451;44.804;20.476;2023-02-05T07:22:18;-0.97;54.74
68867;SHT30;56451;44.804;20.476;2023-02-05T07:24:45;-0.98;54.65
68867;SHT30;56451;44.804;20.476;2023-02-05T07:27:11;-1.01;55.11
68867;SHT30;56451;44.804;20.476;2023-02-05T07:29:38;-0.97;55.16
68867;SHT30;56451;44.804;20.476;2023-02-05T07:32:04;-0.97;54.59
68867;SHT30;56451;44.804;20.476;2023-02-05T07:34:31;-0.97;54.83
68867;SHT30;56451;44.804;20.476;2023-02-05T07:36:57;-0.95;54.79
68867;SHT30;56451;44.804;20.476;2023-02-05T07:39:23;-0.94;54.94
68867;SHT30;56451;44.804;20.476;2023-02-05T07:41:50;-0.85;54.87
68867;SHT30;56451;44.804;20.476;2023-02-05T07:44:30;-0.77;54.66
68867;SHT30;56451;44.804;20.476;2023-02-05T07:46:59;-0.77;54.27
68867;SHT30;56451;44.804;20.476;2023-02-05T07:49:25;-0.77;54.33
68867;SHT30;56451;44.804;20.476;2023-02-05T07:51:52;-0.77;53.87
68867;SHT30;56451;44.804;20.476;2023-02-05T07:54:22;-0.80;54.43
68867;SHT30;56451;44.804;20.476;2023-02-05T07:56:49;-0.71;54.48
68867;SHT30;56451;44.804;20.476;2023-02-05T07:59:15;-0.70;54.88
68867;SHT30;56451;44.804;20.476;2023-02-05T08:01:41;-0.68;54.73
68867;SHT30;56451;44.804;20.476;2023-02-05T08:04:07;-0.71;54.48
68867;SHT30;56451;44.804;20.476;2023-02-05T08:06:34;-0.71;55.12
68867;SHT30;56451;44.804;20.476;2023-02-05T08:09:00;-0.67;55.07
68867;SHT30;56451;44.804;20.476;2023-02-05T08:11:29;-0.60;54.75
68867;SHT30;56451;44.804;20.476;2023-02-05T08:13:56;-0.57;54.89
68867;SHT30;56451;44.804;20.476;2023-02-05T08:16:22;-0.56;54.66
68867;SHT30;56451;44.804;20.476;2023-02-05T08:18:49;-0.56;54.69
68867;SHT30;56451;44.804;20.476;2023-02-05T08:21:17;-0.56;54.93
68867;SHT30;56451;44.804;20.476;2023-02-05T08:23:44;-0.50;55.17
68867;SHT30;56451;44.804;20.476;2023-02-05T08:26:10;-0.43;54.45
68867;SHT30;56451;44.804;20.476;2023-02-05T08:28:37;-0.40;54.42
68867;SHT30;56451;44.804;20.476;2023-02-05T08:31:12;-0.40;54.73
68867;SHT30;56451;44.804;20.476;2023-02-05T08:33:40;-0.44;55.42
68867;SHT30;56451;44.804;20.476;2023-02-05T08:36:07;-0.36;55.62
68867;SHT30;56451;44.804;20.476;2023-02-05T08:38:33;-0.32;55.30
68867;SHT30;56451;44.804;20.476;2023-02-05T08:41:04;-0.32;55.64
68867;SHT30;56451;44.804;20.476;2023-02-05T08:43:45;-0.33;55.26
68867;SHT30;56451;44.804;20.476;2023-02-05T08:46:15;-0.40;55.85
68867;SHT30;56451;44.804;20.476;2023-02-05T08:48:41;-0.37;56.34
68867;SHT30;56451;44.804;20.476;2023-02-05T08:51:09;-0.30;56.76
68867;SHT30;56451;44.804;20.476;2023-02-05T08:53:36;-0.25;56.26
68867;SHT30;56451;44.804;20.476;2023-02-05T08:56:03;-0.19;55.99
68867;SHT30;56451;44.804;20.476;2023-02-05T08:58:30;-0.18;56.00
68867;SHT30;56451;44.804;20.476;2023-02-05T09:01:10;-0.18;55.20
68867;SHT30;56451;44.804;20.476;2023-02-05T09:03:37;-0.15;55.72
68867;SHT30;56451;44.804;20.476;2023-02-05T09:06:06;-0.12;55.56
68867;SHT30;56451;44.804;20.476;2023-02-05T09:08:33;-0.08;55.41
68867;SHT30;56451;44.804;20.476;2023-02-05T09:10:59;-0.09;55.25
68867;SHT30;56451;44.804;20.476;2023-02-05T09:13:26;-0.08;55.75
68867;SHT30;56451;44.804;20.476;2023-02-05T09:15:53;-0.01;55.65
68867;SHT30;56451;44.804;20.476;2023-02-05T09:18:20;0.03;55.33
68867;SHT30;56451;44.804;20.476;2023-02-05T09:20:48;0.01;55.18
68867;SHT30;56451;44.804;20.476;2023-02-05T09:23:16;-0.03;55.51
68867;SHT30;56451;44.804;20.476;2023-02-05T09:25:43;-0.05;55.41
68867;SHT30;56451;44.804;20.476;2023-02-05T09:28:11;-0.03;55.78
68867;SHT30;56451;44.804;20.476;2023-02-05T09:30:40;-0.02;55.95
68867;SHT30;56451;44.804;20.476;2023-02-05T09:33:09;0.03;55.98
68867;SHT30;56451;44.804;20.476;2023-02-05T09:35:36;0.12;54.82
68867;SHT30;56451;44.804;20.476;2023-02-05T09:38:08;0.05;54.49
68867;SHT30;56451;44.804;20.476;2023-02-05T09:40:42;0.03;54.74
68867;SHT30;56451;44.804;20.476;2023-02-05T09:44:11;-0.06;54.75
68867;SHT30;56451;44.804;20.476;2023-02-05T09:46:43;-0.08;55.16
68867;SHT30;56451;44.804;20.476;2023-02-05T09:49:27;-0.05;54.62
68867;SHT30;56451;44.804;20.476;2023-02-05T09:52:01;0.01;55.22
68867;SHT30;56451;44.804;20.476;2023-02-05T09:54:34;0.11;55.36
68867;SHT30;56451;44.804;20.476;2023-02-05T09:57:08;0.26;55.06
68867;SHT30;56451;44.804;20.476;2023-02-05T09:59:36;0.38;54.50
68867;SHT30;56451;44.804;20.476;2023-02-05T10:02:28;0.42;53.79
68867;SHT30;56451;44.804;20.476;2023-02-05T10:04:59;0.40;53.38
68867;SHT30;56451;44.804;20.476;2023-02-05T10:07:50;0.40;53.43
68867;SHT30;56451;44.804;20.476;2023-02-05T10:10:28;0.43;53.45
68867;SHT30;56451;44.804;20.476;2023-02-05T10:18:42;0.64;53.59
68867;SHT30;56451;44.804;20.476;2023-02-05T10:21:47;0.69;53.88
68867;SHT30;56451;44.804;20.476;2023-02-05T10:27:14;0.60;53.57
68867;SHT30;56451;44.804;20.476;2023-02-05T10:30:01;0.60;53.04
68867;SHT30;56451;44.804;20.476;2023-02-05T10:32:54;0.56;52.38
68867;SHT30;56451;44.804;20.476;2023-02-05T10:35:24;0.57;51.99
68867;SHT30;56451;44.804;20.476;2023-02-05T10:37:53;0.66;51.76
68867;SHT30;56451;44.804;20.476;2023-02-05T10:40:29;0.69;50.85
68867;SHT30;56451;44.804;20.476;2023-02-05T10:45:44;0.63;51.69
68867;SHT30;56451;44.804;20.476;2023-02-05T10:48:34;0.59;51.60
68867;SHT30;56451;44.804;20.476;2023-02-05T10:51:03;0.57;52.59
68867;SHT30;56451;44.804;20.476;2023-02-05T10:53:30;0.63;51.87
68867;SHT30;56451;44.804;20.476;2023-02-05T10:55:59;0.70;50.70
68867;SHT30;56451;44.804;20.476;2023-02-05T10:58:43;0.78;50.73
68867;SHT30;56451;44.804;20.476;2023-02-05T11:01:16;0.90;50.22
68867;SHT30;56451;44.804;20.476;2023-02-05T11:04:02;0.97;49.78
68867;SHT30;56451;44.804;20.476;2023-02-05T11:06:39;0.99;50.41
68867;SHT30;56451;44.804;20.476;2023-02-05T11:11:53;0.99;50.67
68867;SHT30;56451;44.804;20.476;2023-02-05T11:14:26;1.04;50.69
68867;SHT30;56451;44.804;20.476;2023-02-05T11:16:54;0.99;50.33
68867;SHT30;56451;44.804;20.476;2023-02-05T11:19:24;0.95;50.09
68867;SHT30;56451;44.804;20.476;2023-02-05T11:21:57;0.94;49.82
68867;SHT30;56451;44.804;20.476;2023-02-05T11:24:30;0.88;50.42
68867;SHT30;56451;44.804;20.476;2023-02-05T11:27:18;0.77;50.87
68867;SHT30;56451;44.804;20.476;2023-02-05T11:29:49;0.71;51.78
68867;SHT30;56451;44.804;20.476;2023-02-05T11:32:19;0.76;51.96
68867;SHT30;56451;44.804;20.476;2023-02-05T11:34:46;0.80;51.42
68867;SHT30;56451;44.804;20.476;2023-02-05T11:37:16;0.88;51.30
68867;SHT30;56451;44.804;20.476;2023-02-05T11:39:44;0.94;51.39
68867;SHT30;56451;44.804;20.476;2023-02-05T11:42:21;0.98;51.56
68867;SHT30;56451;44.804;20.476;2023-02-05T11:45:00;0.98;51.93
68867;SHT30;56451;44.804;20.476;2023-02-05T11:47:38;1.04;52.33
68867;SHT30;56451;44.804;20.476;2023-02-05T11:50:20;1.14;52.05
68867;SHT30;56451;44.804;20.476;2023-02-05T11:52:48;1.22;51.27
68867;SHT30;56451;44.804;20.476;2023-02-05T11:55:28;1.22;51.28
68867;SHT30;56451;44.804;20.476;2023-02-05T11:58:02;1.15;52.03
68867;SHT30;56451;44.804;20.476;2023-02-05T12:00:30;1.09;52.49
68867;SHT30;56451;44.804;20.476;2023-02-05T12:03:25;1.09;52.38
68867;SHT30;56451;44.804;20.476;2023-02-05T12:06:11;1.07;51.84
68867;SHT30;56451;44.804;20.476;2023-02-05T12:08:51;1.04;51.07
68867;SHT30;56451;44.804;20.476;2023-02-05T12:14:54;0.94;51.12
68867;SHT30;56451;44.804;20.476;2023-02-05T12:25:18;1.01;47.44
68867;SHT30;56451;44.804;20.476;2023-02-05T12:30:36;1.07;48.55
68867;SHT30;56451;44.804;20.476;2023-02-05T12:33:21;1.11;48.21
68867;SHT30;56451;44.804;20.476;2023-02-05T12:36:10;1.09;46.67
68867;SHT30;56451;44.804;20.476;2023-02-05T12:39:38;1.12;47.36
68867;SHT30;56451;44.804;20.476;2023-02-05T12:44:49;1.08;48.06
68867;SHT30;56451;44.804;20.476;2023-02-05T12:47:59;1.12;48.41
68867;SHT30;56451;44.804;20.476;2023-02-05T12:53:42;1.24;47.62
68867;SHT30;56451;44.804;20.476;2023-02-05T13:02:41;1.09;49.34
68867;SHT30;56451;44.804;20.476;2023-02-05T13:08:05;1.17;49.06
68867;SHT30;56451;44.804;20.476;2023-02-05T13:10:55;1.28;49.00
68867;SHT30;56451;44.804;20.476;2023-02-05T13:13:30;1.39;48.86
68867;SHT30;56451;44.804;20.476;2023-02-05T13:16:02;1.43;47.39
68867;SHT30;56451;44.804;20.476;2023-02-05T13:18:39;1.45;47.32
68867;SHT30;56451;44.804;20.476;2023-02-05T13:21:10;1.46;46.83
68867;SHT30;56451;44.804;20.476;2023-02-05T13:24:25;1.45;47.45
68867;SHT30;56451;44.804;20.476;2023-02-05T13:27:21;1.45;45.84
68867;SHT30;56451;44.804;20.476;2023-02-05T13:30:15;1.48;45.95
68867;SHT30;56451;44.804;20.476;2023-02-05T13:32:43;1.57;46.14
68867;SHT30;56451;44.804;20.476;2023-02-05T13:35:13;1.60;46.24
68867;SHT30;56451;44.804;20.476;2023-02-05T13:40:30;1.60;46.74
68867;SHT30;56451;44.804;20.476;2023-02-05T13:43:20;1.57;45.54
68867;SHT30;56451;44.804;20.476;2023-02-05T13:46:04;1.60;45.16
68867;SHT30;56451;44.804;20.476;2023-02-05T13:55:35;1.50;48.93
68867;SHT30;56451;44.804;20.476;2023-02-05T14:00:54;1.55;48.40
68867;SHT30;56451;44.804;20.476;2023-02-05T14:03:43;1.57;48.33
68867;SHT30;56451;44.804;20.476;2023-02-05T14:08:55;1.57;48.71
68867;SHT30;56451;44.804;20.476;2023-02-05T14:11:23;1.60;48.89
68867;SHT30;56451;44.804;20.476;2023-02-05T14:16:55;1.60;46.97
68867;SHT30;56451;44.804;20.476;2023-02-05T14:22:33;1.52;47.45
68867;SHT30;56451;44.804;20.476;2023-02-05T14:25:00;1.45;48.07
68867;SHT30;56451;44.804;20.476;2023-02-05T14:31:06;1.42;48.12
68867;SHT30;56451;44.804;20.476;2023-02-05T14:33:35;1.36;48.02
68867;SHT30;56451;44.804;20.476;2023-02-05T14:49:33;1.15;49.91
68867;SHT30;56451;44.804;20.476;2023-02-05T14:55:14;1.04;51.26
68867;SHT30;56451;44.804;20.476;2023-02-05T14:57:52;0.97;51.48
68867;SHT30;56451;44.804;20.476;2023-02-05T15:22:32;0.74;49.33
68867;SHT30;56451;44.804;20.476;2023-02-05T15:25:01;0.73;49.13
68867;SHT30;56451;44.804;20.476;2023-02-05T15:27:46;0.69;49.80
68867;SHT30;56451;44.804;20.476;2023-02-05T15:30:19;0.67;50.37
68867;SHT30;56451;44.804;20.476;2023-02-05T15:32:52;0.73;50.53
68867;SHT30;56451;44.804;20.476;2023-02-05T15:35:24;0.67;51.01
68867;SHT30;56451;44.804;20.476;2023-02-05T15:37:54;0.66;51.62
68867;SHT30;56451;44.804;20.476;2023-02-05T15:40:26;0.61;52.14
68867;SHT30;56451;44.804;20.476;2023-02-05T15:42:57;0.61;51.79
68867;SHT30;56451;44.804;20.476;2023-02-05T15:45:24;0.52;51.50
68867;SHT30;56451;44.804;20.476;2023-02-05T15:53:43;0.26;55.73
68867;SHT30;56451;44.804;20.476;2023-02-05T16:01:24;0.36;54.85
68867;SHT30;56451;44.804;20.476;2023-02-05T16:03:50;0.36;54.95
68867;SHT30;56451;44.804;20.476;2023-02-05T16:06:21;0.39;55.17
68867;SHT30;56451;44.804;20.476;2023-02-05T16:08:49;0.48;55.05
68867;SHT30;56451;44.804;20.476;2023-02-05T16:11:28;0.52;55.07
68867;SHT30;56451;44.804;20.476;2023-02-05T16:14:06;0.54;55.04
68867;SHT30;56451;44.804;20.476;2023-02-05T16:16:39;0.56;55.44
68867;SHT30;56451;44.804;20.476;2023-02-05T16:19:12;0.56;56.05
68867;SHT30;56451;44.804;20.476;2023-02-05T16:21:48;0.64;56.51
68867;SHT30;56451;44.804;20.476;2023-02-05T16:27:10;0.67;57.28
68867;SHT30;56451;44.804;20.476;2023-02-05T16:29:42;0.56;58.08
68867;SHT30;56451;44.804;20.476;2023-02-05T16:32:24;0.49;58.54
68867;SHT30;56451;44.804;20.476;2023-02-05T16:34:50;0.40;59.14
68867;SHT30;56451;44.804;20.476;2023-02-05T16:37:17;0.38;58.18
68867;SHT30;56451;44.804;20.476;2023-02-05T16:39:45;0.25;57.83
68867;SHT30;56451;44.804;20.476;2023-02-05T16:47:34;0.01;58.92
68867;SHT30;56451;44.804;20.476;2023-02-05T16:50:34;-0.05;59.46
68867;SHT30;56451;44.804;20.476;2023-02-05T16:53:02;-0.05;59.51
68867;SHT30;56451;44.804;20.476;2023-02-05T16:58:02;-0.02;59.89
68867;SHT30;56451;44.804;20.476;2023-02-05T17:00:29;-0.03;60.02
68867;SHT30;56451;44.804;20.476;2023-02-05T17:03:06;0.02;59.76
68867;SHT30;56451;44.804;20.476;2023-02-05T17:05:34;0.05;59.71
68867;SHT30;56451;44.804;20.476;2023-02-05T17:08:04;0.02;59.83
68867;SHT30;56451;44.804;20.476;2023-02-05T17:10:47;-0.01;59.80
68867;SHT30;56451;44.804;20.476;2023-02-05T17:13:40;-0.03;60.19
68867;SHT30;56451;44.804;20.476;2023-02-05T17:18:58;-0.08;59.95
68867;SHT30;56451;44.804;20.476;2023-02-05T17:21:31;-0.09;59.56
68867;SHT30;56451;44.804;20.476;2023-02-05T17:23:58;-0.13;59.48
68867;SHT30;56451;44.804;20.476;2023-02-05T17:26:28;-0.20;59.52
68867;SHT30;56451;44.804;20.476;2023-02-05T17:28:58;-0.22;59.76
68867;SHT30;56451;44.804;20.476;2023-02-05T17:31:25;-0.19;59.39
68867;SHT30;56451;44.804;20.476;2023-02-05T17:33:56;-0.15;59.04
68867;SHT30;56451;44.804;20.476;2023-02-05T17:36:22;-0.13;59.22
68867;SHT30;56451;44.804;20.476;2023-02-05T17:38:50;-0.13;59.06
68867;SHT30;56451;44.804;20.476;2023-02-05T17:41:19;-0.12;59.04
68867;SHT30;56451;44.804;20.476;2023-02-05T17:44:04;-0.10;59.11
68867;SHT30;56451;44.804;20.476;2023-02-05T17:46:30;-0.15;59.18
68867;SHT30;56451;44.804;20.476;2023-02-05T17:48:56;-0.23;59.35
68867;SHT30;56451;44.804;20.476;2023-02-05T17:51:23;-0.22;59.43
68867;SHT30;56451;44.804;20.476;2023-02-05T17:53:49;-0.26;59.56
68867;SHT30;56451;44.804;20.476;2023-02-05T17:56:16;-0.20;59.42
68867;SHT30;56451;44.804;20.476;2023-02-05T17:58:44;-0.18;59.36
68867;SHT30;56451;44.804;20.476;2023-02-05T18:01:10;-0.12;59.05
68867;SHT30;56451;44.804;20.476;2023-02-05T18:03:37;-0.13;58.56
68867;SHT30;56451;44.804;20.476;2023-02-05T18:06:03;-0.13;58.64
68867;SHT30;56451;44.804;20.476;2023-02-05T18:08:29;-0.12;58.54
68867;SHT30;56451;44.804;20.476;2023-02-05T18:10:55;-0.13;58.52
68867;SHT30;56451;44.804;20.476;2023-02-05T18:13:22;-0.20;58.90
68867;SHT30;56451;44.804;20.476;2023-02-05T18:15:48;-0.28;59.22